sensor_id;sensor_type;location;lat;lon;timestamp;pressure;altitude;pressure_sealevel;temperature;humidity
44441;BME280;30146;52.268;20.944;2024-03-23T00:54:39;99501.80;;;9.67;71.56
44441;BME280;30146;52.268;20.944;2024-03-23T00:57:10;99497.92;;;9.64;71.64
44441;BME280;30146;52.268;20.944;2024-03-23T00:59:41;99498.98;;;9.62;71.77
44441;BME280;30146;52.268;20.944;2024-03-23T01:02:11;99496.48;;;9.59;71.74
44441;BME280;30146;52.268;20.944;2024-03-23T01:04:42;99490.88;;;9.58;71.98
44441;BME280;30146;52.268;20.944;2024-03-23T01:07:12;99487.69;;;9.55;72.07
44441;BME280;30146;52.268;20.944;2024-03-23T01:09:43;99488.06;;;9.53;72.02
44441;BME280;30146;52.268;20.944;2024-03-23T01:12:13;99491.98;;;9.53;72.23
44441;BME280;30146;52.268;20.944;2024-03-23T01:14:44;99491.31;;;9.52;72.36
44441;BME280;30146;52.268;20.944;2024-03-23T01:17:14;99484.84;;;9.52;72.54
44441;BME280;30146;52.268;20.944;2024-03-23T01:19:45;99484.17;;;9.51;72.45
44441;BME280;30146;52.268;20.944;2024-03-23T01:22:15;99479.08;;;9.50;72.78
44441;BME280;30146;52.268;20.944;2024-03-23T01:24:46;99479.56;;;9.51;72.79
44441;BME280;30146;52.268;20.944;2024-03-23T01:27:16;99477.88;;;9.50;72.71
44441;BME280;30146;52.268;20.944;2024-03-23T01:29:47;99475.66;;;9.50;72.82
44441;BME280;30146;52.268;20.944;2024-03-23T01:32:17;99474.80;;;9.50;73.04
44441;BME280;30146;52.268;20.944;2024-03-23T01:34:48;99476.52;;;9.49;73.12
44441;BME280;30146;52.268;20.944;2024-03-23T01:37:19;99480.46;;;9.49;73.23
44441;BME280;30146;52.268;20.944;2024-03-23T01:39:49;99483.69;;;9.50;73.26
44441;BME280;30146;52.268;20.944;2024-03-23T01:42:20;99478.55;;;9.51;73.57
44441;BME280;30146;52.268;20.944;2024-03-23T01:44:51;99474.77;;;9.53;73.48
44441;BME280;30146;52.268;20.944;2024-03-23T01:47:21;99472.20;;;9.53;73.53
44441;BME280;30146;52.268;20.944;2024-03-23T01:49:52;99459.75;;;9.53;73.43
44441;BME280;30146;52.268;20.944;2024-03-23T01:52:23;99451.55;;;9.53;73.65
44441;BME280;30146;52.268;20.944;2024-03-23T01:54:53;99454.61;;;9.54;73.65
44441;BME280;30146;52.268;20.944;2024-03-23T01:57:24;99457.85;;;9.54;73.59
44441;BME280;30146;52.268;20.944;2024-03-23T01:59:55;99464.15;;;9.54;73.73
44441;BME280;30146;52.268;20.944;2024-03-23T02:02:25;99464.81;;;9.56;73.68
44441;BME280;30146;52.268;20.944;2024-03-23T02:04:56;99463.07;;;9.57;73.92
44441;BME280;30146;52.268;20.944;2024-03-23T02:07:26;99448.70;;;9.59;74.12
44441;BME280;30146;52.268;20.944;2024-03-23T02:09:57;99447.46;;;9.62;74.29
44441;BME280;30146;52.268;20.944;2024-03-23T02:12:28;99452.06;;;9.62;74.16
44441;BME280;30146;52.268;20.944;2024-03-23T02:14:58;99447.41;;;9.64;74.28
44441;BME280;30146;52.268;20.944;2024-03-23T02:17:31;99444.00;;;9.64;74.23
44441;BME280;30146;52.268;20.944;2024-03-23T02:20:02;99449.80;;;9.64;74.18
44441;BME280;30146;52.268;20.944;2024-03-23T02:22:39;99443.11;;;9.66;74.26
44441;BME280;30146;52.268;20.944;2024-03-23T02:25:10;99445.84;;;9.67;74.13
44441;BME280;30146;52.268;20.944;2024-03-23T02:27:40;99440.53;;;9.67;74.43
44441;BME280;30146;52.268;20.944;2024-03-23T02:30:11;99437.13;;;9.67;74.46
44441;BME280;30146;52.268;20.944;2024-03-23T02:32:41;99438.14;;;9.68;74.31
44441;BME280;30146;52.268;20.944;2024-03-23T02:35:12;99435.06;;;9.68;74.46
44441;BME280;30146;52.268;20.944;2024-03-23T02:37:43;99433.18;;;9.68;74.47
44441;BME280;30146;52.268;20.944;2024-03-23T02:40:13;99436.39;;;9.70;74.69
44441;BME280;30146;52.268;20.944;2024-03-23T02:42:44;99430.21;;;9.70;74.47
44441;BME280;30146;52.268;20.944;2024-03-23T02:45:15;99430.39;;;9.70;74.62
44441;BME280;30146;52.268;20.944;2024-03-23T02:47:46;99430.69;;;9.72;74.70
44441;BME280;30146;52.268;20.944;2024-03-23T02:50:21;99425.22;;;9.73;74.92
44441;BME280;30146;52.268;20.944;2024-03-23T02:52:51;99420.61;;;9.73;74.80
44441;BME280;30146;52.268;20.944;2024-03-23T02:55:22;99417.87;;;9.74;74.93
44441;BME280;30146;52.268;20.944;2024-03-23T02:57:52;99410.88;;;9.73;74.80
44441;BME280;30146;52.268;20.944;2024-03-23T03:00:23;99409.73;;;9.72;74.88
44441;BME280;30146;52.268;20.944;2024-03-23T03:02:53;99412.30;;;9.70;74.95
44441;BME280;30146;52.268;20.944;2024-03-23T03:05:24;99409.23;;;9.70;74.80
44441;BME280;30146;52.268;20.944;2024-03-23T03:07:55;99403.61;;;9.70;75.11
44441;BME280;30146;52.268;20.944;2024-03-23T03:10:25;99400.02;;;9.71;75.19
44441;BME280;30146;52.268;20.944;2024-03-23T03:12:56;99395.88;;;9.72;75.28
44441;BME280;30146;52.268;20.944;2024-03-23T03:15:26;99396.86;;;9.74;75.36
44441;BME280;30146;52.268;20.944;2024-03-23T03:17:57;99397.36;;;9.75;75.29
44441;BME280;30146;52.268;20.944;2024-03-23T03:20:28;99398.55;;;9.75;75.43
44441;BME280;30146;52.268;20.944;2024-03-23T03:22:58;99393.94;;;9.75;75.56
44441;BME280;30146;52.268;20.944;2024-03-23T03:25:29;99395.63;;;9.77;75.44
44441;BME280;30146;52.268;20.944;2024-03-23T03:27:59;99398.52;;;9.77;75.63
44441;BME280;30146;52.268;20.944;2024-03-23T03:30:29;99396.98;;;9.77;75.55
44441;BME280;30146;52.268;20.944;2024-03-23T03:33:00;99399.36;;;9.77;75.55
44441;BME280;30146;52.268;20.944;2024-03-23T03:35:31;99399.71;;;9.77;75.61
44441;BME280;30146;52.268;20.944;2024-03-23T03:38:01;99405.66;;;9.77;75.83
44441;BME280;30146;52.268;20.944;2024-03-23T03:40:32;99402.09;;;9.77;75.57
44441;BME280;30146;52.268;20.944;2024-03-23T03:43:02;99403.93;;;9.79;75.73
44441;BME280;30146;52.268;20.944;2024-03-23T03:45:33;99402.56;;;9.79;75.83
44441;BME280;30146;52.268;20.944;2024-03-23T03:48:04;99401.89;;;9.78;75.88
44441;BME280;30146;52.268;20.944;2024-03-23T03:50:35;99398.80;;;9.80;75.84
44441;BME280;30146;52.268;20.944;2024-03-23T03:53:06;99397.77;;;9.80;75.82
44441;BME280;30146;52.268;20.944;2024-03-23T03:55:36;99393.16;;;9.79;76.01
44441;BME280;30146;52.268;20.944;2024-03-23T03:58:07;99391.96;;;9.80;75.99
44441;BME280;30146;52.268;20.944;2024-03-23T04:00:38;99395.20;;;9.80;76.07
44441;BME280;30146;52.268;20.944;2024-03-23T04:03:08;99389.73;;;9.80;76.32
44441;BME280;30146;52.268;20.944;2024-03-23T04:05:39;99386.80;;;9.81;76.11
44441;BME280;30146;52.268;20.944;2024-03-23T04:08:09;99388.14;;;9.83;76.26
44441;BME280;30146;52.268;20.944;2024-03-23T04:10:40;99385.39;;;9.85;76.23
44441;BME280;30146;52.268;20.944;2024-03-23T04:13:10;99384.35;;;9.85;76.15
44441;BME280;30146;52.268;20.944;2024-03-23T04:15:41;99383.46;;;9.86;76.45
44441;BME280;30146;52.268;20.944;2024-03-23T04:18:11;99383.44;;;9.88;76.41
44441;BME280;30146;52.268;20.944;2024-03-23T04:20:42;99376.77;;;9.88;76.33
44441;BME280;30146;52.268;20.944;2024-03-23T04:23:13;99370.79;;;9.88;76.39
44441;BME280;30146;52.268;20.944;2024-03-23T04:25:43;99364.44;;;9.90;76.48
44441;BME280;30146;52.268;20.944;2024-03-23T04:28:14;99366.11;;;9.91;76.43
44441;BME280;30146;52.268;20.944;2024-03-23T04:30:45;99363.55;;;9.91;76.29
44441;BME280;30146;52.268;20.944;2024-03-23T04:33:15;99357.58;;;9.91;76.36
44441;BME280;30146;52.268;20.944;2024-03-23T04:35:50;99353.45;;;9.92;76.59
44441;BME280;30146;52.268;20.944;2024-03-23T04:38:20;99351.52;;;9.95;76.66
44441;BME280;30146;52.268;20.944;2024-03-23T04:40:56;99353.38;;;9.96;76.53
44441;BME280;30146;52.268;20.944;2024-03-23T04:43:27;99358.16;;;9.96;76.64
44441;BME280;30146;52.268;20.944;2024-03-23T04:45:58;99353.54;;;9.96;76.48
44441;BME280;30146;52.268;20.944;2024-03-23T04:48:28;99349.61;;;9.96;76.47
44441;BME280;30146;52.268;20.944;2024-03-23T04:50:59;99348.08;;;9.96;76.65
44441;BME280;30146;52.268;20.944;2024-03-23T04:53:29;99345.52;;;9.96;76.51
44441;BME280;30146;52.268;20.944;2024-03-23T04:56:00;99342.28;;;9.96;76.51
44441;BME280;30146;52.268;20.944;2024-03-23T04:58:31;99327.95;;;9.95;76.76
44441;BME280;30146;52.268;20.944;2024-03-23T05:01:01;99321.97;;;9.96;76.65
44441;BME280;30146;52.268;20.944;2024-03-23T05:03:32;99324.55;;;9.95;76.40
44441;BME280;30146;52.268;20.944;2024-03-23T05:06:03;99329.02;;;9.93;76.40
44441;BME280;30146;52.268;20.944;2024-03-23T05:08:34;99321.18;;;9.93;76.47
44441;BME280;30146;52.268;20.944;2024-03-23T05:11:05;99327.31;;;9.94;76.71
44441;BME280;30146;52.268;20.944;2024-03-23T05:13:36;99333.59;;;9.94;76.84
44441;BME280;30146;52.268;20.944;2024-03-23T05:16:07;99335.63;;;9.96;76.90
44441;BME280;30146;52.268;20.944;2024-03-23T05:18:38;99337.11;;;9.97;76.91
44441;BME280;30146;52.268;20.944;2024-03-23T05:21:08;99340.85;;;9.99;76.85
44441;BME280;30146;52.268;20.944;2024-03-23T05:23:39;99338.76;;;10.00;77.05
44441;BME280;30146;52.268;20.944;2024-03-23T05:26:09;99334.27;;;10.02;77.04
44441;BME280;30146;52.268;20.944;2024-03-23T05:28:40;99328.09;;;10.04;77.00
44441;BME280;30146;52.268;20.944;2024-03-23T05:31:11;99328.47;;;10.02;76.76
44441;BME280;30146;52.268;20.944;2024-03-23T05:33:41;99330.02;;;10.01;76.65
44441;BME280;30146;52.268;20.944;2024-03-23T05:36:12;99326.40;;;10.03;76.98
44441;BME280;30146;52.268;20.944;2024-03-23T05:38:42;99324.85;;;10.04;77.07
44441;BME280;30146;52.268;20.944;2024-03-23T05:41:13;99322.11;;;10.04;76.94
44441;BME280;30146;52.268;20.944;2024-03-23T05:43:44;99323.13;;;10.05;76.97
44441;BME280;30146;52.268;20.944;2024-03-23T05:46:15;99319.23;;;10.03;76.95
44441;BME280;30146;52.268;20.944;2024-03-23T05:48:47;99318.23;;;10.02;76.97
44441;BME280;30146;52.268;20.944;2024-03-23T05:51:17;99312.39;;;10.03;77.00
44441;BME280;30146;52.268;20.944;2024-03-23T05:53:49;99308.98;;;10.03;77.01
44441;BME280;30146;52.268;20.944;2024-03-23T05:56:21;99310.72;;;10.02;76.82
44441;BME280;30146;52.268;20.944;2024-03-23T05:58:49;99308.52;;;10.01;76.90
44441;BME280;30146;52.268;20.944;2024-03-23T06:01:20;99310.40;;;10.01;76.94
44441;BME280;30146;52.268;20.944;2024-03-23T06:03:51;99308.52;;;10.01;77.13
44441;BME280;30146;52.268;20.944;2024-03-23T06:06:22;99302.70;;;10.01;76.93
44441;BME280;30146;52.268;20.944;2024-03-23T06:08:53;99297.77;;;10.01;76.94
44441;BME280;30146;52.268;20.944;2024-03-23T06:11:23;99303.23;;;10.00;76.90
44441;BME280;30146;52.268;20.944;2024-03-23T06:13:56;99300.91;;;9.98;76.76
44441;BME280;30146;52.268;20.944;2024-03-23T06:16:27;99300.30;;;9.96;76.81
44441;BME280;30146;52.268;20.944;2024-03-23T06:18:57;99307.13;;;9.95;77.20
44441;BME280;30146;52.268;20.944;2024-03-23T06:21:28;99312.05;;;9.96;77.14
44441;BME280;30146;52.268;20.944;2024-03-23T06:23:59;99304.16;;;9.98;77.33
44441;BME280;30146;52.268;20.944;2024-03-23T06:26:29;99306.70;;;9.99;77.25
44441;BME280;30146;52.268;20.944;2024-03-23T06:29:00;99298.16;;;9.99;77.45
44441;BME280;30146;52.268;20.944;2024-03-23T06:31:30;99294.70;;;10.01;77.36
44441;BME280;30146;52.268;20.944;2024-03-23T06:34:01;99293.68;;;10.00;77.23
44441;BME280;30146;52.268;20.944;2024-03-23T06:36:31;99297.24;;;10.02;77.36
44441;BME280;30146;52.268;20.944;2024-03-23T06:39:02;99292.79;;;10.02;77.47
44441;BME280;30146;52.268;20.944;2024-03-23T06:41:33;99288.84;;;10.04;77.53
44441;BME280;30146;52.268;20.944;2024-03-23T06:44:04;99291.35;;;10.05;77.34
44441;BME280;30146;52.268;20.944;2024-03-23T06:46:35;99290.14;;;10.06;77.39
44441;BME280;30146;52.268;20.944;2024-03-23T06:49:05;99281.33;;;10.03;77.27
44441;BME280;30146;52.268;20.944;2024-03-23T06:51:36;99277.64;;;10.00;77.29
44441;BME280;30146;52.268;20.944;2024-03-23T06:54:07;99264.98;;;10.01;77.11
44441;BME280;30146;52.268;20.944;2024-03-23T06:56:38;99255.88;;;10.04;77.71
44441;BME280;30146;52.268;20.944;2024-03-23T06:59:09;99258.40;;;10.06;77.64
44441;BME280;30146;52.268;20.944;2024-03-23T07:01:39;99260.90;;;10.08;77.57
44441;BME280;30146;52.268;20.944;2024-03-23T07:04:10;99261.19;;;10.10;77.68
44441;BME280;30146;52.268;20.944;2024-03-23T07:06:44;99261.52;;;10.11;77.41
44441;BME280;30146;52.268;20.944;2024-03-23T07:09:15;99260.29;;;10.12;77.39
44441;BME280;30146;52.268;20.944;2024-03-23T07:11:46;99258.58;;;10.12;77.41
44441;BME280;30146;52.268;20.944;2024-03-23T07:14:16;99260.11;;;10.12;77.52
44441;BME280;30146;52.268;20.944;2024-03-23T07:16:50;99260.98;;;10.12;77.41
44441;BME280;30146;52.268;20.944;2024-03-23T07:19:23;99258.11;;;10.10;77.28
44441;BME280;30146;52.268;20.944;2024-03-23T07:21:54;99255.96;;;10.08;77.29
44441;BME280;30146;52.268;20.944;2024-03-23T07:24:24;99252.55;;;10.07;77.39
44441;BME280;30146;52.268;20.944;2024-03-23T07:26:55;99250.99;;;10.08;77.36
44441;BME280;30146;52.268;20.944;2024-03-23T07:29:27;99250.46;;;10.09;77.64
44441;BME280;30146;52.268;20.944;2024-03-23T07:31:57;99248.42;;;10.08;77.66
44441;BME280;30146;52.268;20.944;2024-03-23T07:34:28;99247.13;;;10.06;77.53
44441;BME280;30146;52.268;20.944;2024-03-23T07:36:58;99249.73;;;10.04;77.33
44441;BME280;30146;52.268;20.944;2024-03-23T07:39:29;99248.09;;;10.01;77.40
44441;BME280;30146;52.268;20.944;2024-03-23T07:42:02;99244.02;;;9.99;77.54
44441;BME280;30146;52.268;20.944;2024-03-23T07:44:32;99241.69;;;9.98;77.61
44441;BME280;30146;52.268;20.944;2024-03-23T07:47:03;99240.39;;;9.95;77.53
44441;BME280;30146;52.268;20.944;2024-03-23T07:49:33;99234.98;;;9.93;77.78
44441;BME280;30146;52.268;20.944;2024-03-23T07:52:05;99223.08;;;9.91;77.77
44441;BME280;30146;52.268;20.944;2024-03-23T07:54:37;99223.04;;;9.92;77.88
44441;BME280;30146;52.268;20.944;2024-03-23T07:57:08;99219.42;;;9.94;78.18
44441;BME280;30146;52.268;20.944;2024-03-23T07:59:38;99217.49;;;9.96;78.09
44441;BME280;30146;52.268;20.944;2024-03-23T08:02:09;99211.66;;;9.97;78.02
44441;BME280;30146;52.268;20.944;2024-03-23T08:04:40;99203.20;;;10.00;78.28
44441;BME280;30146;52.268;20.944;2024-03-23T08:07:10;99201.20;;;10.05;78.37
44441;BME280;30146;52.268;20.944;2024-03-23T08:09:41;99198.80;;;10.12;78.44
44441;BME280;30146;52.268;20.944;2024-03-23T08:12:11;99198.66;;;10.18;78.56
44441;BME280;30146;52.268;20.944;2024-03-23T08:14:42;99196.73;;;10.27;78.60
44441;BME280;30146;52.268;20.944;2024-03-23T08:17:12;99197.48;;;10.31;78.39
44441;BME280;30146;52.268;20.944;2024-03-23T08:19:42;99193.71;;;10.31;78.28
44441;BME280;30146;52.268;20.944;2024-03-23T08:22:13;99190.61;;;10.33;78.09
44441;BME280;30146;52.268;20.944;2024-03-23T08:24:43;99190.73;;;10.35;78.17
44441;BME280;30146;52.268;20.944;2024-03-23T08:27:13;99180.62;;;10.36;78.02
44441;BME280;30146;52.268;20.944;2024-03-23T08:29:46;99176.49;;;10.37;77.89
44441;BME280;30146;52.268;20.944;2024-03-23T08:32:17;99175.23;;;10.39;77.96
44441;BME280;30146;52.268;20.944;2024-03-23T08:34:47;99167.77;;;10.44;77.98
44441;BME280;30146;52.268;20.944;2024-03-23T08:37:18;99158.94;;;10.48;78.11
44441;BME280;30146;52.268;20.944;2024-03-23T08:39:48;99147.05;;;10.51;77.85
44441;BME280;30146;52.268;20.944;2024-03-23T08:42:23;99139.61;;;10.60;78.07
44441;BME280;30146;52.268;20.944;2024-03-23T08:44:55;99143.19;;;10.79;78.16
44441;BME280;30146;52.268;20.944;2024-03-23T08:47:26;99135.51;;;11.29;79.18
44441;BME280;30146;52.268;20.944;2024-03-23T08:49:56;99126.86;;;11.89;79.60
44441;BME280;30146;52.268;20.944;2024-03-23T08:52:27;99125.34;;;12.52;79.95
44441;BME280;30146;52.268;20.944;2024-03-23T08:55:01;99126.91;;;13.01;79.05
44441;BME280;30146;52.268;20.944;2024-03-23T08:57:35;99122.02;;;13.20;77.50
44441;BME280;30146;52.268;20.944;2024-03-23T09:00:07;99113.15;;;13.33;76.13
44441;BME280;30146;52.268;20.944;2024-03-23T09:02:38;99108.61;;;13.44;75.40
44441;BME280;30146;52.268;20.944;2024-03-23T09:05:09;99105.43;;;13.50;74.65
44441;BME280;30146;52.268;20.944;2024-03-23T09:07:41;99102.81;;;13.63;74.77
44441;BME280;30146;52.268;20.944;2024-03-23T09:10:12;99098.31;;;13.77;74.46
44441;BME280;30146;52.268;20.944;2024-03-23T09:12:44;99091.00;;;13.83;73.98
44441;BME280;30146;52.268;20.944;2024-03-23T09:15:15;99088.98;;;13.86;73.35
44441;BME280;30146;52.268;20.944;2024-03-23T09:17:44;99082.52;;;13.88;73.46
44441;BME280;30146;52.268;20.944;2024-03-23T09:20:15;99077.13;;;13.86;72.76
44441;BME280;30146;52.268;20.944;2024-03-23T09:22:46;99075.90;;;13.82;72.52
44441;BME280;30146;52.268;20.944;2024-03-23T09:25:18;99067.98;;;13.79;72.09
44441;BME280;30146;52.268;20.944;2024-03-23T09:27:49;99063.92;;;13.73;71.82
44441;BME280;30146;52.268;20.944;2024-03-23T09:30:20;99060.55;;;13.67;71.83
44441;BME280;30146;52.268;20.944;2024-03-23T09:32:51;99059.30;;;13.65;71.94
44441;BME280;30146;52.268;20.944;2024-03-23T09:35:24;99059.38;;;13.59;71.82
44441;BME280;30146;52.268;20.944;2024-03-23T09:37:55;99054.67;;;13.53;71.79
44441;BME280;30146;52.268;20.944;2024-03-23T09:40:26;99050.99;;;13.54;71.83
44441;BME280;30146;52.268;20.944;2024-03-23T09:42:57;99051.09;;;13.56;72.10
44441;BME280;30146;52.268;20.944;2024-03-23T09:45:30;99050.02;;;13.57;72.20
44441;BME280;30146;52.268;20.944;2024-03-23T09:48:01;99044.17;;;13.58;72.08
44441;BME280;30146;52.268;20.944;2024-03-23T09:50:32;99035.05;;;13.58;72.05
44441;BME280;30146;52.268;20.944;2024-03-23T09:53:05;99031.02;;;13.68;72.20
44441;BME280;30146;52.268;20.944;2024-03-23T09:55:37;99026.41;;;13.91;72.57
44441;BME280;30146;52.268;20.944;2024-03-23T09:58:11;99020.89;;;14.18;72.52
44441;BME280;30146;52.268;20.944;2024-03-23T10:00:43;99018.57;;;14.39;71.89
44441;BME280;30146;52.268;20.944;2024-03-23T10:03:14;99010.17;;;14.53;71.46
44441;BME280;30146;52.268;20.944;2024-03-23T10:05:45;99004.30;;;14.65;71.08
44441;BME280;30146;52.268;20.944;2024-03-23T10:08:20;98986.73;;;14.77;70.77
44441;BME280;30146;52.268;20.944;2024-03-23T10:10:50;98974.33;;;14.85;70.25
44441;BME280;30146;52.268;20.944;2024-03-23T10:13:28;98969.70;;;14.91;70.10
44441;BME280;30146;52.268;20.944;2024-03-23T10:16:00;98958.77;;;15.06;70.02
44441;BME280;30146;52.268;20.944;2024-03-23T10:18:29;98955.03;;;15.29;70.43
44441;BME280;30146;52.268;20.944;2024-03-23T10:21:09;98952.11;;;15.50;70.27
44441;BME280;30146;52.268;20.944;2024-03-23T10:23:42;98945.86;;;15.67;69.41
44441;BME280;30146;52.268;20.944;2024-03-23T10:26:20;98936.24;;;15.73;68.68
44441;BME280;30146;52.268;20.944;2024-03-23T10:28:56;98925.29;;;15.72;67.98
44441;BME280;30146;52.268;20.944;2024-03-23T10:31:30;98920.34;;;15.78;67.77
44441;BME280;30146;52.268;20.944;2024-03-23T10:34:02;98913.06;;;15.79;67.80
44441;BME280;30146;52.268;20.944;2024-03-23T10:36:33;98908.20;;;15.86;67.60
44441;BME280;30146;52.268;20.944;2024-03-23T10:39:06;98905.25;;;15.92;67.12
44441;BME280;30146;52.268;20.944;2024-03-23T10:41:38;98899.38;;;15.99;66.85
44441;BME280;30146;52.268;20.944;2024-03-23T10:44:10;98895.05;;;16.06;66.85
44441;BME280;30146;52.268;20.944;2024-03-23T10:46:41;98887.35;;;16.08;66.52
44441;BME280;30146;52.268;20.944;2024-03-23T10:49:11;98886.35;;;16.13;66.24
44441;BME280;30146;52.268;20.944;2024-03-23T10:51:42;98880.61;;;16.26;66.36
44441;BME280;30146;52.268;20.944;2024-03-23T10:54:13;98874.46;;;16.41;66.28
44441;BME280;30146;52.268;20.944;2024-03-23T10:56:44;98869.37;;;16.58;66.05
44441;BME280;30146;52.268;20.944;2024-03-23T10:59:16;98857.13;;;16.66;65.11
44441;BME280;30146;52.268;20.944;2024-03-23T11:01:59;98851.13;;;16.75;64.82
44441;BME280;30146;52.268;20.944;2024-03-23T11:04:34;98843.57;;;16.77;63.85
44441;BME280;30146;52.268;20.944;2024-03-23T11:07:31;98838.66;;;16.82;63.57
44441;BME280;30146;52.268;20.944;2024-03-23T11:10:02;98837.55;;;16.83;63.43
44441;BME280;30146;52.268;20.944;2024-03-23T11:12:53;98845.77;;;16.84;63.13
44441;BME280;30146;52.268;20.944;2024-03-23T11:15:24;98844.84;;;16.85;62.77
44441;BME280;30146;52.268;20.944;2024-03-23T11:18:11;98841.16;;;16.86;62.68
44441;BME280;30146;52.268;20.944;2024-03-23T11:20:49;98837.05;;;16.91;63.09
44441;BME280;30146;52.268;20.944;2024-03-23T11:23:30;98831.52;;;17.03;63.32
44441;BME280;30146;52.268;20.944;2024-03-23T11:26:01;98829.98;;;17.17;62.91
44441;BME280;30146;52.268;20.944;2024-03-23T11:28:33;98827.69;;;17.15;61.63
44441;BME280;30146;52.268;20.944;2024-03-23T11:31:10;98820.37;;;17.11;61.67
44441;BME280;30146;52.268;20.944;2024-03-23T11:33:41;98817.15;;;17.15;61.96
44441;BME280;30146;52.268;20.944;2024-03-23T11:36:20;98809.09;;;17.20;61.94
44441;BME280;30146;52.268;20.944;2024-03-23T11:38:50;98801.83;;;17.26;61.62
44441;BME280;30146;52.268;20.944;2024-03-23T11:41:21;98801.59;;;17.30;61.66
44441;BME280;30146;52.268;20.944;2024-03-23T11:43:53;98797.39;;;17.31;61.29
44441;BME280;30146;52.268;20.944;2024-03-23T11:46:26;98792.30;;;17.29;61.02
44441;BME280;30146;52.268;20.944;2024-03-23T11:48:58;98787.52;;;17.28;60.94
44441;BME280;30146;52.268;20.944;2024-03-23T11:51:30;98778.00;;;17.29;60.88
44441;BME280;30146;52.268;20.944;2024-03-23T11:54:10;98777.46;;;17.29;60.46
44441;BME280;30146;52.268;20.944;2024-03-23T11:56:40;98770.40;;;17.31;60.26
44441;BME280;30146;52.268;20.944;2024-03-23T11:59:12;98771.48;;;17.37;59.87
44441;BME280;30146;52.268;20.944;2024-03-23T12:02:00;98761.14;;;17.33;59.24
44441;BME280;30146;52.268;20.944;2024-03-23T12:04:37;98758.45;;;17.26;59.00
44441;BME280;30146;52.268;20.944;2024-03-23T12:07:16;98754.47;;;17.18;58.69
44441;BME280;30146;52.268;20.944;2024-03-23T12:10:04;98746.77;;;17.11;58.78
44441;BME280;30146;52.268;20.944;2024-03-23T12:12:36;98742.85;;;17.08;58.84
44441;BME280;30146;52.268;20.944;2024-03-23T12:15:09;98735.02;;;17.09;58.92
44441;BME280;30146;52.268;20.944;2024-03-23T12:17:42;98734.96;;;17.13;58.78
44441;BME280;30146;52.268;20.944;2024-03-23T12:20:12;98731.38;;;17.12;58.23
44441;BME280;30146;52.268;20.944;2024-03-23T12:22:43;98726.48;;;17.13;58.30
44441;BME280;30146;52.268;20.944;2024-03-23T12:25:16;98727.77;;;17.12;57.98
44441;BME280;30146;52.268;20.944;2024-03-23T12:27:47;98717.02;;;17.07;57.84
44441;BME280;30146;52.268;20.944;2024-03-23T12:30:18;98714.52;;;17.02;57.78
44441;BME280;30146;52.268;20.944;2024-03-23T12:32:49;98712.45;;;16.97;57.66
44441;BME280;30146;52.268;20.944;2024-03-23T12:35:21;98708.83;;;16.94;57.70
44441;BME280;30146;52.268;20.944;2024-03-23T12:37:51;98704.61;;;16.90;57.57
44441;BME280;30146;52.268;20.944;2024-03-23T12:40:23;98697.77;;;16.83;57.44
44441;BME280;30146;52.268;20.944;2024-03-23T12:42:56;98698.44;;;16.77;57.30
44441;BME280;30146;52.268;20.944;2024-03-23T12:45:27;98694.25;;;16.70;57.20
44441;BME280;30146;52.268;20.944;2024-03-23T12:47:58;98691.37;;;16.63;57.17
44441;BME280;30146;52.268;20.944;2024-03-23T12:50:27;98685.86;;;16.57;57.33
44441;BME280;30146;52.268;20.944;2024-03-23T12:52:58;98676.30;;;16.50;57.34
44441;BME280;30146;52.268;20.944;2024-03-23T12:55:30;98675.59;;;16.44;57.44
44441;BME280;30146;52.268;20.944;2024-03-23T12:58:02;98668.24;;;16.38;57.56
44441;BME280;30146;52.268;20.944;2024-03-23T13:00:37;98663.05;;;16.35;57.75
44441;BME280;30146;52.268;20.944;2024-03-23T13:03:08;98660.55;;;16.33;57.73
44441;BME280;30146;52.268;20.944;2024-03-23T13:05:52;98649.45;;;16.29;57.43
44441;BME280;30146;52.268;20.944;2024-03-23T13:08:52;98638.03;;;16.24;57.62
44441;BME280;30146;52.268;20.944;2024-03-23T13:11:24;98633.52;;;16.24;57.79
44441;BME280;30146;52.268;20.944;2024-03-23T13:13:55;98628.88;;;16.24;57.83
44441;BME280;30146;52.268;20.944;2024-03-23T13:16:26;98625.35;;;16.26;57.88
44441;BME280;30146;52.268;20.944;2024-03-23T13:18:57;98618.30;;;16.25;57.65
44441;BME280;30146;52.268;20.944;2024-03-23T13:21:30;98621.44;;;16.24;57.46
44441;BME280;30146;52.268;20.944;2024-03-23T13:24:04;98620.33;;;16.20;57.24
44441;BME280;30146;52.268;20.944;2024-03-23T13:26:36;98616.21;;;16.17;57.07
44441;BME280;30146;52.268;20.944;2024-03-23T13:29:15;98605.10;;;16.12;57.03
44441;BME280;30146;52.268;20.944;2024-03-23T13:31:46;98599.77;;;16.09;57.07
44441;BME280;30146;52.268;20.944;2024-03-23T13:34:18;98588.66;;;16.08;57.17
44441;BME280;30146;52.268;20.944;2024-03-23T13:36:47;98579.21;;;16.07;57.24
44441;BME280;30146;52.268;20.944;2024-03-23T13:39:18;98575.42;;;16.04;57.16
44441;BME280;30146;52.268;20.944;2024-03-23T13:41:56;98571.29;;;16.01;57.07
44441;BME280;30146;52.268;20.944;2024-03-23T13:44:27;98562.12;;;16.02;57.29
44441;BME280;30146;52.268;20.944;2024-03-23T13:47:01;98560.64;;;16.04;57.59
44441;BME280;30146;52.268;20.944;2024-03-23T13:49:33;98556.38;;;16.06;57.69
44441;BME280;30146;52.268;20.944;2024-03-23T13:52:05;98551.48;;;16.07;57.49
44441;BME280;30146;52.268;20.944;2024-03-23T13:54:36;98547.32;;;16.07;57.53
44441;BME280;30146;52.268;20.944;2024-03-23T13:57:07;98548.57;;;16.07;57.38
44441;BME280;30146;52.268;20.944;2024-03-23T13:59:40;98554.12;;;16.04;57.04
44441;BME280;30146;52.268;20.944;2024-03-23T14:02:10;98551.13;;;15.98;57.00
44441;BME280;30146;52.268;20.944;2024-03-23T14:04:43;98551.53;;;15.94;57.00
44441;BME280;30146;52.268;20.944;2024-03-23T14:07:14;98547.17;;;15.92;57.29
44441;BME280;30146;52.268;20.944;2024-03-23T14:09:46;98535.38;;;15.91;57.41
44441;BME280;30146;52.268;20.944;2024-03-23T14:12:17;98526.02;;;15.89;57.33